createdAt,value
2017-01-14T00:00:39.972Z,0
2017-01-14T00:01:46.218Z,0
2017-01-14T00:02:51.377Z,0
2017-01-14T00:03:56.576Z,0
2017-01-14T00:04:57.907Z,0
2017-01-14T00:06:04.044Z,0
2017-01-14T00:07:08.272Z,0
2017-01-14T00:08:12.506Z,0
2017-01-14T00:09:18.668Z,0
2017-01-14T00:10:22.901Z,0
2017-01-14T00:11:27.199Z,0
2017-01-14T00:12:32.361Z,0
2017-01-14T00:13:37.573Z,0
2017-01-14T00:14:43.746Z,0
2017-01-14T00:15:49.910Z,0
2017-01-14T00:16:54.210Z,0
2017-01-14T00:18:00.372Z,0
2017-01-14T00:19:05.543Z,0
2017-01-14T00:20:10.749Z,0
2017-01-14T00:21:14.996Z,0
2017-01-14T00:22:21.167Z,0
2017-01-14T00:23:26.335Z,0
2017-01-14T00:24:32.509Z,0
2017-01-14T00:25:38.844Z,0
2017-01-14T00:26:43.964Z,0
2017-01-14T00:27:50.141Z,0
2017-01-14T00:28:55.352Z,0
2017-01-14T00:29:59.567Z,0
2017-01-14T00:31:05.734Z,0
2017-01-14T00:32:10.932Z,0
2017-01-14T00:33:16.093Z,0
2017-01-14T00:34:20.355Z,0
2017-01-14T00:35:25.547Z,0
2017-01-14T00:36:31.709Z,0
2017-01-14T00:37:36.918Z,8
2017-01-14T00:38:41.085Z,8
2017-01-14T00:39:47.252Z,8
2017-01-14T00:40:53.423Z,8
2017-01-14T00:41:57.624Z,8
2017-01-14T00:43:02.839Z,8
2017-01-14T00:44:07.128Z,8
2017-01-14T00:45:13.252Z,8
2017-01-14T00:46:19.444Z,8
2017-01-14T00:47:23.679Z,8
2017-01-14T00:48:28.847Z,8
2017-01-14T00:49:34.044Z,8
2017-01-14T00:50:39.334Z,4
2017-01-14T00:51:44.131Z,4
2017-01-14T00:52:50.303Z,4
2017-01-14T00:53:56.468Z,4
2017-01-14T00:55:01.678Z,4
2017-01-14T00:56:06.870Z,4
2017-01-14T00:57:12.111Z,0
2017-01-14T00:58:18.225Z,0
2017-01-14T00:59:23.425Z,0
2017-01-14T01:00:27.656Z,0
2017-01-14T01:01:32.860Z,0
2017-01-14T01:02:38.100Z,0
2017-01-14T01:03:44.247Z,0
2017-01-14T01:04:50.411Z,0
2017-01-14T01:05:55.621Z,0
2017-01-14T01:07:00.840Z,0
2017-01-14T01:08:07.057Z,0
2017-01-14T01:09:13.217Z,0
2017-01-14T01:10:18.382Z,0
2017-01-14T01:11:23.583Z,0
2017-01-14T01:12:27.813Z,0
2017-01-14T01:13:33.028Z,0
2017-01-14T01:14:38.208Z,0
2017-01-14T01:15:43.392Z,0
2017-01-14T01:16:47.590Z,0
2017-01-14T01:17:53.757Z,0
2017-01-14T01:18:59.915Z,0
2017-01-14T01:20:04.146Z,0
2017-01-14T01:21:10.315Z,0
2017-01-14T01:22:15.507Z,0
2017-01-14T01:23:19.782Z,0
2017-01-14T01:24:25.942Z,0
2017-01-14T01:25:32.108Z,0
2017-01-14T01:26:37.304Z,0
2017-01-14T01:27:42.501Z,0
2017-01-14T01:28:47.690Z,0
2017-01-14T01:29:53.858Z,0
2017-01-14T01:31:00.018Z,0
2017-01-14T01:32:06.184Z,0
2017-01-14T01:33:11.386Z,0
2017-01-14T01:34:16.546Z,0
2017-01-14T01:35:21.770Z,0
2017-01-14T01:36:27.946Z,0
2017-01-14T01:37:33.227Z,0
2017-01-14T01:38:39.465Z,0
2017-01-14T01:39:43.704Z,0
2017-01-14T01:40:48.309Z,0
2017-01-14T01:41:54.472Z,0
2017-01-14T01:42:57.713Z,0
2017-01-14T01:44:03.024Z,0
2017-01-14T01:45:07.349Z,0
2017-01-14T01:46:11.585Z,0
2017-01-14T01:47:17.748Z,0
2017-01-14T01:48:23.913Z,0
2017-01-14T01:50:34.309Z,0
2017-01-14T01:51:38.597Z,0
2017-01-14T01:52:44.762Z,0
2017-01-14T01:53:49.930Z,0
2017-01-14T01:54:56.091Z,0
2017-01-14T01:56:02.254Z,0
2017-01-14T01:57:07.436Z,0
2017-01-14T01:58:12.658Z,0
2017-01-14T01:59:18.829Z,0
2017-01-14T02:00:23.097Z,0
2017-01-14T02:01:29.271Z,0
2017-01-14T02:02:34.464Z,0
2017-01-14T02:03:39.765Z,0
2017-01-14T02:04:44.990Z,0
2017-01-14T02:05:50.198Z,0
2017-01-14T02:06:54.464Z,0
2017-01-14T02:07:59.632Z,0
2017-01-14T02:09:04.837Z,0
2017-01-14T02:10:09.080Z,0
2017-01-14T02:11:15.273Z,0
2017-01-14T02:12:20.436Z,0
2017-01-14T02:13:24.663Z,0
2017-01-14T02:14:29.870Z,0
2017-01-14T02:15:36.029Z,0
2017-01-14T02:16:41.224Z,0
2017-01-14T02:17:46.433Z,0
2017-01-14T02:18:50.651Z,0
2017-01-14T02:19:56.949Z,0
2017-01-14T02:21:02.142Z,0
2017-01-14T02:22:07.348Z,0
2017-01-14T02:23:10.578Z,0
2017-01-14T02:24:15.787Z,0
2017-01-14T02:25:19.986Z,0
2017-01-14T02:26:26.158Z,0
2017-01-14T02:27:32.328Z,0
2017-01-14T02:28:38.494Z,0
2017-01-14T02:29:43.761Z,0
2017-01-14T02:30:49.922Z,0
2017-01-14T02:31:55.848Z,0
2017-01-14T02:33:00.081Z,0
2017-01-14T02:34:04.316Z,0
2017-01-14T02:35:07.554Z,0
2017-01-14T02:36:13.744Z,0
2017-01-14T02:37:17.974Z,0
2017-01-14T02:38:23.181Z,0
2017-01-14T02:39:28.376Z,0
2017-01-14T02:40:33.577Z,0
2017-01-14T02:41:39.748Z,0
2017-01-14T02:42:45.933Z,0
2017-01-14T02:43:52.094Z,0
2017-01-14T02:44:56.320Z,0
2017-01-14T02:46:00.554Z,0
2017-01-14T02:47:05.747Z,0
2017-01-14T02:48:11.910Z,0
2017-01-14T02:49:18.147Z,0
2017-01-14T02:50:23.954Z,0
2017-01-14T02:51:30.197Z,0
2017-01-14T02:52:36.636Z,0
2017-01-14T02:53:42.891Z,0
2017-01-14T02:54:48.053Z,0
2017-01-14T02:55:54.251Z,0
2017-01-14T02:56:59.458Z,0
2017-01-14T02:58:04.660Z,0
2017-01-14T02:59:08.897Z,0
2017-01-14T03:00:15.084Z,0
2017-01-14T03:01:21.397Z,0
2017-01-14T03:02:26.591Z,0
2017-01-14T03:03:31.790Z,0
2017-01-14T03:04:35.993Z,0
2017-01-14T03:05:40.228Z,0
2017-01-14T03:06:46.449Z,0
2017-01-14T03:07:51.656Z,0
2017-01-14T03:08:56.498Z,0
2017-01-14T03:10:01.699Z,0
2017-01-14T03:11:06.922Z,0
2017-01-14T03:12:12.092Z,0
2017-01-14T03:13:18.269Z,0
2017-01-14T03:14:24.510Z,0
2017-01-14T03:15:29.709Z,0
2017-01-14T03:16:35.873Z,0
2017-01-14T03:17:38.141Z,0
2017-01-14T03:18:44.303Z,0
2017-01-14T03:19:50.459Z,0
2017-01-14T03:20:55.657Z,0
2017-01-14T03:22:00.827Z,0
2017-01-14T03:23:06.002Z,0
2017-01-14T03:24:10.231Z,0
2017-01-14T03:25:15.442Z,0
2017-01-14T03:26:19.640Z,0
2017-01-14T03:27:25.802Z,0
2017-01-14T03:28:30.991Z,0
2017-01-14T03:29:36.179Z,0
2017-01-14T03:30:40.456Z,0
2017-01-14T03:31:45.588Z,0
2017-01-14T03:32:51.742Z,0
2017-01-14T03:33:56.933Z,0
2017-01-14T03:35:03.111Z,0
2017-01-14T03:36:08.272Z,0
2017-01-14T03:37:13.474Z,0
2017-01-14T03:38:15.741Z,0
2017-01-14T03:39:20.941Z,0
2017-01-14T03:40:26.112Z,0
2017-01-14T03:41:30.322Z,0
2017-01-14T03:42:36.505Z,0
2017-01-14T03:43:42.663Z,0
2017-01-14T03:44:47.855Z,0
2017-01-14T03:45:54.034Z,0
2017-01-14T03:46:58.263Z,0
2017-01-14T03:48:03.541Z,0
2017-01-14T03:49:09.713Z,0
2017-01-14T03:50:14.879Z,0
2017-01-14T03:51:21.046Z,0
2017-01-14T03:52:26.345Z,0
2017-01-14T03:53:32.565Z,0
2017-01-14T03:54:38.729Z,0
2017-01-14T03:55:43.935Z,0
2017-01-14T03:56:49.152Z,0
2017-01-14T03:57:53.443Z,0
2017-01-14T03:58:59.615Z,0
2017-01-14T04:00:04.833Z,0
2017-01-14T04:01:10.030Z,0
2017-01-14T04:02:16.191Z,0
2017-01-14T04:03:22.351Z,0
2017-01-14T04:04:28.567Z,0
2017-01-14T04:05:33.869Z,0
2017-01-14T04:06:40.033Z,0
2017-01-14T04:07:43.262Z,0
2017-01-14T04:08:48.429Z,0
2017-01-14T04:09:54.595Z,0
2017-01-14T04:11:00.758Z,0
2017-01-14T04:12:06.932Z,0
2017-01-14T04:13:12.228Z,0
2017-01-14T04:14:18.429Z,0
2017-01-14T04:15:24.567Z,0
2017-01-14T04:16:29.728Z,0
2017-01-14T04:17:33.962Z,0
2017-01-14T04:18:37.222Z,0
2017-01-14T04:19:41.453Z,0
2017-01-14T04:20:47.615Z,0
2017-01-14T04:21:53.778Z,0
2017-01-14T04:22:58.978Z,0
2017-01-14T04:24:03.180Z,0
2017-01-14T04:25:08.411Z,0
2017-01-14T04:26:14.590Z,0
2017-01-14T04:27:19.780Z,0
2017-01-14T04:28:24.999Z,0
2017-01-14T04:29:30.205Z,0
2017-01-14T04:30:35.411Z,0
2017-01-14T04:31:39.760Z,0
2017-01-14T04:32:43.954Z,0
2017-01-14T04:33:50.181Z,0
2017-01-14T04:34:56.342Z,0
2017-01-14T04:36:01.631Z,0
2017-01-14T04:37:05.095Z,0
2017-01-14T04:38:11.227Z,0
2017-01-14T04:39:16.427Z,0
2017-01-14T04:40:19.690Z,0
2017-01-14T04:41:25.866Z,0
2017-01-14T04:42:29.112Z,0
2017-01-14T04:43:33.419Z,0
2017-01-14T04:44:38.619Z,0
2017-01-14T04:45:44.860Z,0
2017-01-14T04:46:50.061Z,0
2017-01-14T04:47:55.926Z,0
2017-01-14T04:49:02.097Z,0
2017-01-14T04:50:08.248Z,0
2017-01-14T04:51:14.459Z,0
2017-01-14T04:52:19.699Z,0
2017-01-14T04:53:24.894Z,0
2017-01-14T04:54:31.060Z,0
2017-01-14T04:55:36.259Z,0
2017-01-14T04:56:42.427Z,0
2017-01-14T04:57:46.651Z,0
2017-01-14T04:58:52.826Z,0
2017-01-14T04:59:57.999Z,0
2017-01-14T05:01:03.189Z,0
2017-01-14T05:02:08.363Z,0
2017-01-14T05:03:13.564Z,0
2017-01-14T05:04:19.724Z,0
2017-01-14T05:05:25.891Z,0
2017-01-14T05:06:32.059Z,0
2017-01-14T05:07:37.314Z,0
2017-01-14T05:08:43.480Z,0
2017-01-14T05:09:47.703Z,0
2017-01-14T05:10:53.879Z,0
2017-01-14T05:11:59.077Z,0
2017-01-14T05:13:05.248Z,0
2017-01-14T05:14:11.523Z,0
2017-01-14T05:15:16.694Z,0
2017-01-14T05:16:20.934Z,0
2017-01-14T05:17:26.120Z,0
2017-01-14T05:18:30.346Z,0
2017-01-14T05:19:36.522Z,0
2017-01-14T05:20:42.683Z,0
2017-01-14T05:21:48.846Z,0
2017-01-14T05:22:54.097Z,0
2017-01-14T05:23:57.409Z,0
2017-01-14T05:25:02.594Z,0
2017-01-14T05:26:07.762Z,0
2017-01-14T05:27:11.995Z,0
2017-01-14T05:28:17.169Z,0
2017-01-14T05:29:22.368Z,0
2017-01-14T05:30:27.577Z,0
2017-01-14T05:31:33.745Z,0
2017-01-14T05:32:38.939Z,0
2017-01-14T05:33:45.144Z,0
2017-01-14T05:34:49.304Z,0
2017-01-14T05:35:54.508Z,0
2017-01-14T05:37:00.671Z,0
2017-01-14T05:38:05.871Z,0
2017-01-14T05:39:12.032Z,0
2017-01-14T05:40:18.192Z,0
2017-01-14T05:41:23.388Z,0
2017-01-14T05:42:29.688Z,0
2017-01-14T05:43:33.923Z,0
2017-01-14T05:44:39.122Z,0
2017-01-14T05:45:45.281Z,0
2017-01-14T05:46:51.450Z,0
2017-01-14T05:47:56.648Z,0
2017-01-14T05:49:01.835Z,0
2017-01-14T05:50:07.023Z,0
2017-01-14T05:51:13.197Z,0
2017-01-14T05:52:19.370Z,0
2017-01-14T05:53:24.570Z,0
2017-01-14T05:54:30.795Z,0
2017-01-14T05:55:35.001Z,0
2017-01-14T05:56:41.172Z,0
2017-01-14T05:57:47.326Z,0
2017-01-14T05:58:51.553Z,0
2017-01-14T05:59:57.754Z,0
2017-01-14T06:01:03.892Z,0
2017-01-14T06:02:09.133Z,0
2017-01-14T06:03:15.268Z,0
2017-01-14T06:04:20.452Z,0
2017-01-14T06:05:25.749Z,0
2017-01-14T06:06:31.912Z,0
2017-01-14T06:07:38.080Z,0
2017-01-14T06:08:44.258Z,0
2017-01-14T06:09:50.422Z,0
2017-01-14T06:10:56.673Z,0
2017-01-14T06:12:01.869Z,0
2017-01-14T06:13:06.094Z,0
2017-01-14T06:14:10.324Z,0
2017-01-14T06:15:15.527Z,0
2017-01-14T06:16:21.821Z,0
2017-01-14T06:17:27.985Z,0
2017-01-14T06:18:34.194Z,0
2017-01-14T06:19:40.352Z,0
2017-01-14T06:20:46.524Z,0
2017-01-14T06:21:51.735Z,0
2017-01-14T06:22:57.903Z,0
2017-01-14T06:24:04.068Z,0
2017-01-14T06:25:10.320Z,0
2017-01-14T06:26:15.518Z,0
2017-01-14T06:27:19.822Z,0
2017-01-14T06:28:24.001Z,0
2017-01-14T06:29:29.194Z,0
2017-01-14T06:30:33.403Z,0
2017-01-14T06:31:38.602Z,0
2017-01-14T06:32:43.796Z,0
2017-01-14T06:33:49.958Z,0
2017-01-14T06:34:56.117Z,0
2017-01-14T06:35:59.372Z,0
2017-01-14T06:37:04.551Z,0
2017-01-14T06:38:09.748Z,0
2017-01-14T06:39:13.975Z,0
2017-01-14T06:40:19.178Z,0
2017-01-14T06:41:23.382Z,0
2017-01-14T06:42:29.553Z,0
2017-01-14T06:43:33.761Z,0
2017-01-14T06:44:38.953Z,0
2017-01-14T06:45:44.154Z,0
2017-01-14T06:46:50.311Z,0
2017-01-14T06:47:56.499Z,0
2017-01-14T06:49:01.691Z,0
2017-01-14T06:50:05.944Z,0
2017-01-14T06:51:12.105Z,0
2017-01-14T06:52:18.267Z,0
2017-01-14T06:53:24.437Z,4
2017-01-14T06:54:29.642Z,0
2017-01-14T06:55:35.824Z,0
2017-01-14T06:56:40.122Z,4
2017-01-14T06:57:46.288Z,4
2017-01-14T06:58:51.492Z,4
2017-01-14T06:59:56.699Z,4
2017-01-14T07:01:01.864Z,4
2017-01-14T07:02:07.731Z,8
2017-01-14T07:03:13.894Z,8
2017-01-14T07:04:20.057Z,12
2017-01-14T07:05:25.235Z,12
2017-01-14T07:06:30.445Z,12
2017-01-14T07:07:35.644Z,16
2017-01-14T07:08:40.843Z,24
2017-01-14T07:09:45.043Z,28
2017-01-14T07:10:50.270Z,28
2017-01-14T07:11:56.418Z,36
2017-01-14T07:13:02.584Z,40
2017-01-14T07:14:08.736Z,48
2017-01-14T07:15:11.018Z,56
2017-01-14T07:16:16.234Z,60
2017-01-14T07:17:21.432Z,72
2017-01-14T07:18:26.634Z,80
2017-01-14T07:19:32.811Z,92
2017-01-14T07:20:38.983Z,100
2017-01-14T07:21:44.188Z,116
2017-01-14T07:22:49.388Z,124
2017-01-14T07:23:54.616Z,140
2017-01-14T07:25:00.723Z,160
2017-01-14T07:26:05.925Z,180
2017-01-14T07:27:10.136Z,200
2017-01-14T07:28:15.306Z,216
2017-01-14T07:29:21.470Z,236
2017-01-14T07:30:26.670Z,256
2017-01-14T07:31:31.863Z,276
2017-01-14T07:32:38.026Z,296
2017-01-14T07:33:44.198Z,316
2017-01-14T07:34:50.379Z,340
2017-01-14T07:35:56.558Z,364
2017-01-14T07:37:02.724Z,396
2017-01-14T07:38:07.926Z,424
2017-01-14T07:39:14.120Z,460
2017-01-14T07:40:19.291Z,500
2017-01-14T07:41:24.491Z,536
2017-01-14T07:42:30.723Z,572
2017-01-14T07:43:36.877Z,596
2017-01-14T07:44:43.050Z,612
2017-01-14T07:45:48.220Z,636
2017-01-14T07:46:54.384Z,644
2017-01-14T07:47:59.576Z,700
2017-01-14T07:49:05.771Z,732
2017-01-14T07:50:10.977Z,768
2017-01-14T07:51:16.185Z,852
2017-01-14T07:52:21.393Z,940
2017-01-14T07:53:27.741Z,1024
2017-01-14T07:54:30.937Z,1036
2017-01-14T07:55:35.197Z,1048
2017-01-14T07:56:41.376Z,1136
2017-01-14T07:57:45.616Z,1320
2017-01-14T07:58:50.813Z,1484
2017-01-14T07:59:55.983Z,1536
2017-01-14T08:01:00.209Z,1476
2017-01-14T08:02:06.377Z,1324
2017-01-14T08:03:11.557Z,1324
2017-01-14T08:04:14.789Z,1280
2017-01-14T08:05:20.020Z,1296
2017-01-14T08:06:26.154Z,1364
2017-01-14T08:07:32.314Z,1420
2017-01-14T08:08:37.515Z,1504
2017-01-14T08:09:41.749Z,1604
2017-01-14T08:10:47.913Z,1708
2017-01-14T08:11:54.076Z,2240
2017-01-14T08:12:58.304Z,2672
2017-01-14T08:14:03.503Z,2624
2017-01-14T08:15:08.749Z,2928
2017-01-14T08:16:12.980Z,3052
2017-01-14T08:17:18.198Z,3352
2017-01-14T08:18:23.400Z,3620
2017-01-14T08:19:28.638Z,3916
2017-01-14T08:20:33.794Z,4064
2017-01-14T08:21:39.998Z,4128
2017-01-14T08:22:46.167Z,4268
2017-01-14T08:23:52.397Z,4492
2017-01-14T08:24:57.625Z,4596
2017-01-14T08:26:02.822Z,4812
2017-01-14T08:27:08.971Z,5096
2017-01-14T08:28:15.128Z,5084
2017-01-14T08:29:21.296Z,5068
2017-01-14T08:30:26.504Z,5280
2017-01-14T08:31:32.687Z,5504
2017-01-14T08:32:35.917Z,5576
2017-01-14T08:33:41.092Z,5640
2017-01-14T08:34:45.346Z,5440
2017-01-14T08:35:49.581Z,5412
2017-01-14T08:36:55.753Z,5544
2017-01-14T08:38:01.929Z,5760
2017-01-14T08:39:06.148Z,5964
2017-01-14T08:40:11.353Z,5380
2017-01-14T08:41:17.535Z,4116
2017-01-14T08:42:20.781Z,3684
2017-01-14T08:43:25.956Z,4064
2017-01-14T08:44:32.118Z,4272
2017-01-14T08:45:38.291Z,4056
2017-01-14T08:46:43.551Z,3544
2017-01-14T08:47:48.800Z,3408
2017-01-14T08:48:53.964Z,3672
2017-01-14T08:50:00.132Z,5572
2017-01-14T08:51:06.329Z,7056
2017-01-14T08:52:11.541Z,6292
2017-01-14T08:53:17.725Z,4816
2017-01-14T08:54:22.965Z,6864
2017-01-14T08:55:28.142Z,6744
2017-01-14T08:56:33.308Z,6920
2017-01-14T08:57:37.606Z,9296
2017-01-14T08:58:41.840Z,9708
2017-01-14T08:59:47.270Z,10276
2017-01-14T09:00:51.473Z,11356
2017-01-14T09:01:55.680Z,12432
2017-01-14T09:03:00.902Z,13360
2017-01-14T09:04:07.138Z,14304
2017-01-14T09:05:12.350Z,14912
2017-01-14T09:06:18.513Z,15424
2017-01-14T09:07:23.723Z,14400
2017-01-14T09:08:28.923Z,12088
2017-01-14T09:09:34.125Z,13124
2017-01-14T09:10:40.305Z,10360
2017-01-14T09:11:43.579Z,13304
2017-01-14T09:12:48.750Z,12200
2017-01-14T09:13:53.977Z,10852
2017-01-14T09:15:00.155Z,10648
2017-01-14T09:16:06.476Z,13984
2017-01-14T09:17:12.665Z,13276
2017-01-14T09:18:18.847Z,12652
2017-01-14T09:19:25.013Z,9180
2017-01-14T09:20:30.233Z,6400
2017-01-14T09:21:34.460Z,4928
2017-01-14T09:22:38.697Z,5124
2017-01-14T09:23:43.910Z,5204
2017-01-14T09:24:49.096Z,4748
2017-01-14T09:25:55.263Z,4552
2017-01-14T09:26:59.569Z,4540
2017-01-14T09:28:05.740Z,4508
2017-01-14T09:29:10.940Z,4660
2017-01-14T09:30:16.142Z,4616
2017-01-14T09:31:21.353Z,4760
2017-01-14T09:32:26.573Z,4884
2017-01-14T09:33:31.837Z,4936
2017-01-14T09:34:38.011Z,4984
2017-01-14T09:35:43.219Z,4992
2017-01-14T09:36:48.399Z,4952
2017-01-14T09:37:52.598Z,4892
2017-01-14T09:38:57.779Z,4848
2017-01-14T09:40:02.983Z,4776
2017-01-14T09:41:09.219Z,4824
2017-01-14T09:42:14.395Z,5040
2017-01-14T09:43:19.610Z,5452
2017-01-14T09:44:24.810Z,5816
2017-01-14T09:45:28.435Z,4868
2017-01-14T09:46:32.678Z,5404
2017-01-14T09:47:37.874Z,4900
2017-01-14T09:48:44.054Z,4832
2017-01-14T09:49:49.248Z,5136
2017-01-14T09:50:55.418Z,4864
2017-01-14T09:52:00.624Z,4692
2017-01-14T09:53:06.794Z,4440
2017-01-14T09:54:12.000Z,4084
2017-01-14T09:55:16.240Z,3768
2017-01-14T09:56:22.411Z,3632
2017-01-14T09:57:26.618Z,3604
2017-01-14T09:58:31.902Z,3976
2017-01-14T09:59:37.691Z,3788
2017-01-14T10:00:43.919Z,3652
2017-01-14T10:01:50.097Z,3560
2017-01-14T10:02:56.293Z,3584
2017-01-14T10:04:01.501Z,3928
2017-01-14T10:05:07.673Z,4460
2017-01-14T10:06:10.940Z,4560
2017-01-14T10:07:16.119Z,4444
2017-01-14T10:08:22.297Z,4204
2017-01-14T10:09:28.516Z,4060
2017-01-14T10:10:33.828Z,4028
2017-01-14T10:11:40.100Z,4136
2017-01-14T10:12:46.268Z,4672
2017-01-14T10:13:49.529Z,4476
2017-01-14T10:14:54.742Z,4472
2017-01-14T10:15:58.953Z,4744
2017-01-14T10:17:05.116Z,5768
2017-01-14T10:18:11.286Z,7016
2017-01-14T10:19:17.451Z,5344
2017-01-14T10:20:22.652Z,10380
2017-01-14T10:21:27.926Z,13884
2017-01-14T10:22:32.107Z,13644
2017-01-14T10:23:36.347Z,13928
2017-01-14T10:24:41.551Z,13328
2017-01-14T10:25:47.729Z,14624
2017-01-14T10:26:54.092Z,13292
2017-01-14T10:27:57.379Z,10156
2017-01-14T10:29:03.565Z,18112
2017-01-14T10:30:09.735Z,9052
2017-01-14T10:31:14.929Z,9424
2017-01-14T10:32:20.120Z,22400
2017-01-14T10:33:26.298Z,22048
2017-01-14T10:34:32.477Z,11032
2017-01-14T10:35:37.744Z,22976
2017-01-14T10:36:42.896Z,10792
2017-01-14T10:37:49.066Z,7028
2017-01-14T10:38:55.276Z,17728
2017-01-14T10:39:58.516Z,20064
2017-01-14T10:41:04.686Z,16160
2017-01-14T10:42:10.861Z,15296
2017-01-14T10:43:16.032Z,20416
2017-01-14T10:44:21.263Z,4836
2017-01-14T10:45:26.450Z,5596
2017-01-14T10:46:32.619Z,5356
2017-01-14T10:47:38.791Z,20096
2017-01-14T10:48:43.963Z,19872
2017-01-14T10:49:49.179Z,17760
2017-01-14T10:50:54.386Z,19424
2017-01-14T10:51:59.595Z,19552
2017-01-14T10:53:04.808Z,19584
2017-01-14T10:54:09.044Z,18976
2017-01-14T10:55:14.212Z,19872
2017-01-14T10:56:20.381Z,20160
2017-01-14T10:57:25.600Z,19968
2017-01-14T10:58:30.803Z,20928
2017-01-14T10:59:36.981Z,13612
2017-01-14T11:00:41.302Z,7144
2017-01-14T11:01:47.519Z,6308
2017-01-14T11:02:52.803Z,4732
2017-01-14T11:03:58.013Z,4112
2017-01-14T11:05:03.324Z,3948
2017-01-14T11:06:08.534Z,4112
2017-01-14T11:07:13.724Z,3840
2017-01-14T11:08:18.926Z,4228
2017-01-14T11:09:25.122Z,4340
2017-01-14T11:10:31.289Z,3908
2017-01-14T11:11:37.472Z,4140
2017-01-14T11:12:41.807Z,4040
2017-01-14T11:13:46.985Z,6272
2017-01-14T11:14:52.229Z,5948
2017-01-14T11:15:58.365Z,4504
2017-01-14T11:17:04.543Z,4192
2017-01-14T11:18:08.785Z,4524
2017-01-14T11:19:14.996Z,4388
2017-01-14T11:20:21.166Z,4804
2017-01-14T11:21:27.329Z,5884
2017-01-14T11:22:31.552Z,5700
2017-01-14T11:23:34.788Z,4692
2017-01-14T11:24:40.962Z,5100
2017-01-14T11:25:47.135Z,4180
2017-01-14T11:26:51.345Z,4604
2017-01-14T11:27:57.528Z,4428
2017-01-14T11:29:01.769Z,4796
2017-01-14T11:30:07.947Z,4436
2017-01-14T11:32:17.616Z,3496
2017-01-14T11:33:21.840Z,4964
2017-01-14T11:34:28.140Z,6228
2017-01-14T11:35:34.309Z,5832
2017-01-14T11:36:40.591Z,6240
2017-01-14T11:37:46.758Z,5072
2017-01-14T11:38:51.966Z,4596
2017-01-14T11:39:57.161Z,5244
2017-01-14T11:41:03.333Z,5360
2017-01-14T11:42:07.299Z,5336
2017-01-14T11:43:11.536Z,4252
2017-01-14T11:44:16.735Z,2920
2017-01-14T11:45:22.946Z,2888
2017-01-14T11:46:29.123Z,3384
2017-01-14T11:47:34.292Z,3112
2017-01-14T11:48:38.508Z,3180
2017-01-14T11:49:43.799Z,3184
2017-01-14T11:50:49.970Z,2216
2017-01-14T11:51:54.297Z,3356
2017-01-14T11:52:58.506Z,5324
2017-01-14T11:54:02.739Z,6140
2017-01-14T11:55:08.935Z,4892
2017-01-14T11:56:14.127Z,4992
2017-01-14T11:57:20.296Z,4720
2017-01-14T11:58:25.504Z,4344
2017-01-14T11:59:31.703Z,4212
2017-01-14T12:00:37.839Z,4160
2017-01-14T12:01:42.071Z,3996
2017-01-14T12:02:48.238Z,5128
2017-01-14T12:03:54.416Z,4492
2017-01-14T12:04:59.623Z,4888
2017-01-14T12:06:04.790Z,5184
2017-01-14T12:07:09.984Z,5500
2017-01-14T12:08:16.150Z,4312
2017-01-14T12:09:22.322Z,4840
2017-01-14T12:10:26.567Z,4536
2017-01-14T12:11:30.799Z,3908
2017-01-14T12:12:36.062Z,3808
2017-01-14T12:13:42.438Z,3808
2017-01-14T12:14:48.019Z,3828
2017-01-14T12:15:54.190Z,4548
2017-01-14T12:16:59.406Z,3892
2017-01-14T12:18:05.604Z,3692
2017-01-14T12:19:10.816Z,3496
2017-01-14T12:20:16.985Z,3712
2017-01-14T12:21:20.223Z,3488
2017-01-14T12:22:25.426Z,3392
2017-01-14T12:23:31.613Z,3580
2017-01-14T12:24:37.774Z,4424
2017-01-14T12:25:42.987Z,4900
2017-01-14T12:26:47.200Z,4744
2017-01-14T12:27:52.405Z,4232
2017-01-14T12:28:58.572Z,4300
2017-01-14T12:30:02.915Z,3992
2017-01-14T12:31:07.147Z,3732
2017-01-14T12:32:13.322Z,3800
2017-01-14T12:33:16.593Z,4304
2017-01-14T12:34:22.765Z,4752
2017-01-14T12:35:28.938Z,4892
2017-01-14T12:36:34.142Z,4208
2017-01-14T12:37:39.405Z,4068
2017-01-14T12:38:43.647Z,4232
2017-01-14T12:39:48.847Z,4352
2017-01-14T12:40:55.021Z,4812
2017-01-14T12:42:01.268Z,3844
2017-01-14T12:43:07.412Z,3776
2017-01-14T12:44:12.606Z,4200
2017-01-14T12:45:18.775Z,4020
2017-01-14T12:46:23.972Z,4124
2017-01-14T12:47:30.145Z,4576
2017-01-14T12:48:36.324Z,4488
2017-01-14T12:49:41.530Z,3488
2017-01-14T12:50:47.788Z,3532
2017-01-14T12:51:53.025Z,4824
2017-01-14T12:52:58.252Z,3920
2017-01-14T12:54:03.435Z,2744
2017-01-14T12:55:09.703Z,3120
2017-01-14T12:56:15.869Z,2940
2017-01-14T12:57:20.147Z,2912
2017-01-14T12:58:25.386Z,2724
2017-01-14T12:59:30.590Z,2920
2017-01-14T13:00:35.772Z,2820
2017-01-14T13:01:41.949Z,2044
2017-01-14T13:02:45.219Z,2324
2017-01-14T13:03:50.393Z,2288
2017-01-14T13:04:56.632Z,2708
2017-01-14T13:06:02.766Z,2320
2017-01-14T13:07:07.978Z,2160
2017-01-14T13:08:14.143Z,2524
2017-01-14T13:09:20.318Z,2092
2017-01-14T13:10:25.626Z,1944
2017-01-14T13:11:29.836Z,1976
2017-01-14T13:12:36.094Z,2032
2017-01-14T13:13:41.293Z,2448
2017-01-14T13:14:46.500Z,2680
2017-01-14T13:15:51.702Z,2896
2017-01-14T13:16:57.885Z,2652
2017-01-14T13:18:03.092Z,3008
2017-01-14T13:19:08.296Z,3336
2017-01-14T13:20:14.452Z,2728
2017-01-14T13:21:20.638Z,2288
2017-01-14T13:22:25.818Z,2332
2017-01-14T13:23:31.025Z,2832
2017-01-14T13:24:37.191Z,2600
2017-01-14T13:25:41.419Z,3388
2017-01-14T13:26:45.656Z,3008
2017-01-14T13:27:51.819Z,3552
2017-01-14T13:28:57.027Z,3100
2017-01-14T13:30:00.296Z,2484
2017-01-14T13:31:05.467Z,1852
2017-01-14T13:32:11.722Z,1904
2017-01-14T13:33:16.957Z,2312
2017-01-14T13:34:23.175Z,2604
2017-01-14T13:35:27.382Z,3088
2017-01-14T13:36:33.645Z,3196
2017-01-14T13:37:37.866Z,3808
2017-01-14T13:38:44.039Z,3384
2017-01-14T13:39:50.239Z,3876
2017-01-14T13:40:55.411Z,5100
2017-01-14T13:41:59.612Z,5072
2017-01-14T13:43:04.815Z,5564
2017-01-14T13:44:10.126Z,5108
2017-01-14T13:45:16.297Z,3636
2017-01-14T13:46:21.556Z,3460
2017-01-14T13:47:27.725Z,2608
2017-01-14T13:48:32.951Z,2512
2017-01-14T13:49:39.105Z,2712
2017-01-14T13:50:45.293Z,2384
2017-01-14T13:51:51.514Z,2400
2017-01-14T13:52:55.748Z,2276
2017-01-14T13:54:00.948Z,2456
2017-01-14T13:55:02.258Z,2572
2017-01-14T13:56:08.642Z,2116
2017-01-14T13:57:14.814Z,1960
2017-01-14T13:58:19.007Z,1872
2017-01-14T13:59:25.249Z,1676
2017-01-14T14:00:30.446Z,1524
2017-01-14T14:01:34.737Z,1676
2017-01-14T14:02:40.916Z,1304
2017-01-14T14:03:46.119Z,1164
2017-01-14T14:04:51.329Z,996
2017-01-14T14:05:56.528Z,1112
2017-01-14T14:07:00.043Z,1100
2017-01-14T14:08:05.171Z,1096
2017-01-14T14:09:10.376Z,1156
2017-01-14T14:10:16.294Z,1408
2017-01-14T14:11:20.537Z,1180
2017-01-14T14:12:26.706Z,1164
2017-01-14T14:13:32.891Z,1072
2017-01-14T14:14:37.182Z,1004
2017-01-14T14:15:43.354Z,1064
2017-01-14T14:16:48.638Z,960
2017-01-14T14:17:53.874Z,1032
2017-01-14T14:18:59.022Z,764
2017-01-14T14:20:03.337Z,644
2017-01-14T14:21:08.597Z,568
2017-01-14T14:22:13.768Z,528
2017-01-14T14:23:19.937Z,440
2017-01-14T14:24:25.210Z,456
2017-01-14T14:25:29.798Z,476
2017-01-14T14:26:35.967Z,464
2017-01-14T14:27:42.133Z,504
2017-01-14T14:28:48.303Z,496
2017-01-14T14:29:54.474Z,452
2017-01-14T14:31:00.642Z,400
2017-01-14T14:32:05.852Z,432
2017-01-14T14:33:12.021Z,384
2017-01-14T14:34:18.193Z,324
2017-01-14T14:35:23.482Z,296
2017-01-14T14:36:29.622Z,360
2017-01-14T14:37:35.786Z,352
2017-01-14T14:38:40.149Z,300
2017-01-14T14:39:44.407Z,292
2017-01-14T14:40:50.592Z,412
2017-01-14T14:41:55.820Z,320
2017-01-14T14:43:02.035Z,252
2017-01-14T14:44:08.176Z,276
2017-01-14T14:45:14.349Z,284
2017-01-14T14:46:20.540Z,316
2017-01-14T14:47:26.709Z,368
2017-01-14T14:48:32.895Z,420
2017-01-14T14:49:39.074Z,452
2017-01-14T14:50:44.316Z,444
2017-01-14T14:51:50.488Z,532
2017-01-14T14:52:56.671Z,548
2017-01-14T14:54:01.868Z,840
2017-01-14T14:55:08.036Z,1080
2017-01-14T14:56:14.206Z,1152
2017-01-14T14:57:19.408Z,1140
2017-01-14T14:58:25.583Z,1168
2017-01-14T14:59:31.755Z,1256
2017-01-14T15:00:37.918Z,1160
2017-01-14T15:01:43.133Z,1216
2017-01-14T15:02:49.333Z,1232
2017-01-14T15:03:55.611Z,1228
2017-01-14T15:05:00.719Z,1168
2017-01-14T15:06:05.002Z,1080
2017-01-14T15:07:11.124Z,976
2017-01-14T15:08:16.458Z,852
2017-01-14T15:09:21.659Z,824
2017-01-14T15:10:25.969Z,772
2017-01-14T15:11:30.200Z,732
2017-01-14T15:12:36.366Z,724
2017-01-14T15:13:42.547Z,680
2017-01-14T15:14:48.711Z,664
2017-01-14T15:15:54.889Z,656
2017-01-14T15:17:01.063Z,636